createdAt,value
2022-12-09T00:00:09.083Z,16.35
2022-12-09T00:05:13.083Z,15.70
2022-12-09T00:10:17.993Z,24.17
2022-12-09T00:15:21.359Z,17.73
2022-12-09T00:20:24.567Z,15.75
2022-12-09T00:25:29.150Z,16.48
2022-12-09T00:30:32.278Z,14.20
2022-12-09T00:35:35.392Z,14.90
2022-12-09T00:40:40.034Z,14.13
2022-12-09T00:45:44.868Z,14.10
2022-12-09T00:50:48.359Z,18.60
2022-12-09T00:55:53.234Z,17.42
2022-12-09T01:00:56.788Z,20.27
2022-12-09T01:06:00.348Z,15.35
2022-12-09T01:11:10.353Z,23.00
2022-12-09T01:16:15.871Z,24.25
2022-12-09T01:21:19.775Z,22.73
2022-12-09T01:26:24.433Z,21.15
2022-12-09T01:31:27.986Z,23.02
2022-12-09T01:36:31.944Z,17.70
2022-12-09T01:41:36.682Z,29.65
2022-12-09T01:46:40.171Z,25.33
2022-12-09T01:51:45.685Z,20.33
2022-12-09T01:56:53.050Z,19.35
2022-12-09T02:01:59.474Z,16.75
2022-12-09T02:07:05.779Z,13.68
2022-12-09T02:12:14.007Z,22.33
2022-12-09T02:17:27.227Z,19.17
2022-12-09T02:22:38.464Z,18.80
2022-12-09T02:27:49.884Z,24.83
2022-12-09T02:33:19.048Z,23.52
2022-12-09T02:38:27.620Z,23.80
2022-12-09T02:43:35.842Z,23.88
2022-12-09T02:48:43.944Z,19.23
2022-12-09T02:53:53.157Z,24.65
2022-12-09T02:58:57.497Z,23.75
2022-12-09T03:04:05.035Z,22.58
2022-12-09T03:09:13.688Z,21.42
2022-12-09T03:14:21.392Z,24.73
2022-12-09T03:19:33.750Z,29.23
2022-12-09T03:24:41.982Z,20.90
2022-12-09T03:29:48.468Z,26.13
2022-12-09T03:34:56.985Z,19.45
2022-12-09T03:40:06.073Z,24.92
2022-12-09T03:45:15.911Z,20.02
2022-12-09T03:50:21.904Z,20.83
2022-12-09T03:55:34.183Z,19.20
2022-12-09T04:00:39.026Z,42.53
2022-12-09T04:05:43.288Z,18.02
2022-12-09T04:10:48.258Z,18.27
2022-12-09T04:15:53.708Z,24.95
2022-12-09T04:20:57.003Z,20.42
2022-12-09T04:26:01.894Z,27.60
2022-12-09T04:31:05.321Z,22.48
2022-12-09T04:36:11.822Z,17.30
2022-12-09T04:41:16.930Z,22.38
2022-12-09T04:46:20.420Z,16.80
2022-12-09T04:51:24.100Z,26.50
2022-12-09T04:56:28.725Z,24.98
2022-12-09T05:01:32.493Z,17.88
2022-12-09T05:06:36.064Z,23.35
2022-12-09T05:11:41.102Z,25.58
2022-12-09T05:16:44.746Z,29.92
2022-12-09T05:21:48.179Z,26.90
2022-12-09T05:26:53.058Z,24.10
2022-12-09T05:31:56.248Z,10.90
2022-12-09T05:37:00.033Z,23.58
2022-12-09T05:42:04.794Z,16.40
2022-12-09T05:47:08.007Z,38.33
2022-12-09T05:52:14.548Z,26.92
2022-12-09T05:57:19.268Z,15.85
2022-12-09T06:07:27.011Z,21.05
2022-12-09T06:12:32.188Z,20.30
2022-12-09T06:22:39.133Z,23.38
2022-12-09T06:27:43.913Z,28.95
2022-12-09T06:32:47.530Z,27.30
2022-12-09T06:37:51.688Z,27.13
2022-12-09T06:42:56.562Z,27.27
2022-12-09T06:48:00.211Z,23.48
2022-12-09T06:53:04.376Z,22.23
2022-12-09T06:58:09.448Z,34.15
2022-12-09T07:08:16.309Z,34.28
2022-12-09T07:13:21.698Z,38.63
2022-12-09T07:18:25.193Z,30.05
2022-12-09T07:23:28.466Z,37.33
2022-12-09T07:28:33.992Z,40.45
2022-12-09T07:33:37.506Z,29.67
2022-12-09T07:38:41.579Z,26.00
2022-12-09T07:43:46.898Z,48.58
2022-12-09T07:48:50.448Z,25.15
2022-12-09T07:53:54.147Z,26.80
2022-12-09T07:58:59.483Z,41.60
2022-12-09T08:04:05.184Z,31.40
2022-12-09T08:09:11.592Z,27.90
2022-12-09T08:14:16.874Z,26.88
2022-12-09T08:19:20.330Z,29.92
2022-12-09T08:24:24.171Z,32.72
2022-12-09T08:29:29.288Z,30.63
2022-12-09T08:34:32.668Z,33.65
2022-12-09T08:39:36.172Z,31.27
2022-12-09T08:44:41.031Z,27.35
2022-12-09T08:49:44.483Z,37.50
2022-12-09T08:54:48.238Z,31.15
2022-12-09T08:59:52.692Z,31.63
2022-12-09T09:04:57.559Z,26.60
2022-12-09T09:10:01.534Z,34.67
2022-12-09T09:15:07.807Z,32.53
2022-12-09T09:20:11.871Z,40.58
2022-12-09T09:25:16.076Z,42.97
2022-12-09T09:30:21.096Z,35.65
2022-12-09T09:35:24.650Z,36.38
2022-12-09T09:40:29.597Z,40.25
2022-12-09T09:45:34.639Z,38.08
2022-12-09T09:50:46.294Z,40.42
2022-12-09T09:55:57.500Z,33.90
2022-12-09T10:01:07.607Z,39.17
2022-12-09T10:06:21.954Z,40.90
2022-12-09T10:11:32.333Z,35.15
2022-12-09T10:16:43.724Z,33.42
2022-12-09T10:21:51.353Z,38.03
2022-12-09T10:27:02.179Z,33.83
2022-12-09T10:32:13.785Z,36.30
2022-12-09T10:37:25.068Z,36.33
2022-12-09T10:42:50.542Z,44.50
2022-12-09T10:47:55.366Z,45.17
2022-12-09T10:53:04.758Z,43.17
2022-12-09T10:58:15.699Z,48.65
2022-12-09T11:03:28.127Z,39.30
2022-12-09T11:08:32.431Z,38.97
2022-12-09T11:13:41.964Z,30.08
2022-12-09T11:18:48.368Z,39.95
2022-12-09T11:24:02.336Z,40.00
2022-12-09T11:29:14.125Z,36.63
2022-12-09T11:34:23.335Z,41.15
2022-12-09T11:39:29.778Z,29.92
2022-12-09T11:44:35.180Z,36.55
2022-12-09T11:49:49.857Z,33.35
2022-12-09T11:55:13.422Z,38.50
2022-12-09T12:00:23.570Z,36.65
2022-12-09T12:05:35.751Z,46.25
2022-12-09T12:10:41.808Z,41.42
2022-12-09T12:15:51.222Z,42.30
2022-12-09T12:21:12.450Z,46.03
2022-12-09T12:26:20.798Z,52.05
2022-12-09T12:31:37.282Z,62.05
2022-12-09T12:36:49.178Z,57.67
2022-12-09T12:41:57.692Z,54.50
2022-12-09T12:47:18.215Z,49.17
2022-12-09T12:58:06.312Z,50.63
2022-12-09T13:03:21.889Z,59.03
2022-12-09T13:08:34.841Z,35.70
2022-12-09T13:13:43.768Z,36.58
2022-12-09T13:18:47.746Z,41.20
2022-12-09T13:24:00.150Z,36.58
2022-12-09T13:29:12.011Z,42.28
2022-12-09T13:34:25.834Z,39.00
2022-12-09T13:39:55.947Z,35.17
2022-12-09T13:45:05.624Z,46.33
2022-12-09T13:50:27.453Z,24.33
2022-12-09T13:55:40.578Z,41.30
2022-12-09T14:00:58.671Z,45.60
2022-12-09T14:06:19.822Z,41.33
2022-12-09T14:11:47.243Z,27.40
2022-12-09T14:16:51.478Z,32.70
2022-12-09T14:22:28.615Z,26.47
2022-12-09T14:27:33.195Z,35.17
2022-12-09T14:32:50.557Z,34.80
2022-12-09T14:38:14.928Z,31.67
2022-12-09T14:43:56.924Z,27.25
2022-12-09T14:49:04.268Z,33.08
2022-12-09T14:54:13.022Z,21.88
2022-12-09T14:59:20.935Z,31.30
2022-12-09T15:04:29.194Z,32.65
2022-12-09T15:09:32.476Z,30.45
2022-12-09T15:14:37.944Z,26.85
2022-12-09T15:25:05.062Z,29.48
2022-12-09T15:30:22.201Z,44.97
2022-12-09T15:35:27.998Z,23.75
2022-12-09T15:40:33.900Z,23.83
2022-12-09T15:45:42.725Z,25.65
2022-12-09T15:50:49.192Z,18.80
2022-12-09T15:55:55.443Z,22.63
2022-12-09T16:01:02.342Z,19.70
2022-12-09T16:06:08.515Z,25.40
2022-12-09T16:11:12.375Z,17.45
2022-12-09T16:16:29.868Z,23.55
2022-12-09T16:21:34.852Z,18.63
2022-12-09T16:26:40.094Z,39.15
2022-12-09T16:31:44.887Z,21.25
2022-12-09T16:36:54.352Z,23.38
2022-12-09T16:42:00.759Z,22.73
2022-12-09T16:47:14.365Z,16.67
2022-12-09T16:52:20.766Z,19.95
2022-12-09T16:57:24.006Z,17.27
2022-12-09T17:02:33.021Z,22.02
2022-12-09T17:07:36.348Z,12.68
2022-12-09T17:12:39.619Z,17.73
2022-12-09T17:17:48.405Z,16.85
2022-12-09T17:22:52.125Z,14.00
2022-12-09T17:27:55.523Z,25.63
2022-12-09T17:33:00.147Z,21.55
2022-12-09T17:38:03.733Z,16.30
2022-12-09T17:43:06.983Z,27.08
2022-12-09T17:48:11.500Z,18.75
2022-12-09T17:53:14.622Z,18.08
2022-12-09T17:58:18.049Z,22.33
2022-12-09T18:03:53.737Z,15.73
2022-12-09T18:08:45.731Z,18.05
2022-12-09T18:13:49.293Z,20.10
2022-12-09T18:18:54.017Z,23.50
2022-12-09T18:23:57.599Z,23.13
2022-12-09T18:29:01.682Z,22.55
2022-12-09T18:34:07.130Z,18.98
2022-12-09T18:44:15.561Z,26.00
2022-12-09T18:49:22.522Z,24.60
2022-12-09T18:54:28.660Z,21.05
2022-12-09T18:59:32.174Z,28.20
2022-12-09T19:04:37.458Z,26.48
2022-12-09T19:09:41.978Z,28.63
2022-12-09T19:14:45.311Z,23.40
2022-12-09T19:19:50.113Z,21.30
2022-12-09T19:24:53.530Z,14.68
2022-12-09T19:29:57.091Z,34.05
2022-12-09T19:35:01.822Z,16.13
2022-12-09T19:40:07.337Z,20.25
2022-12-09T19:45:14.154Z,17.70
2022-12-09T19:50:20.081Z,17.60
2022-12-09T19:55:23.443Z,14.88
2022-12-09T20:00:26.875Z,23.60
2022-12-09T20:05:31.778Z,18.75
2022-12-09T20:10:35.197Z,20.20
2022-12-09T20:15:38.841Z,17.98
2022-12-09T20:20:48.738Z,14.00
2022-12-09T20:25:52.312Z,16.05
2022-12-09T20:30:55.557Z,13.95
2022-12-09T20:36:06.736Z,14.63
2022-12-09T20:41:13.190Z,18.15
2022-12-09T20:46:18.568Z,18.83
2022-12-09T20:51:24.616Z,29.85
2022-12-09T20:56:29.954Z,20.52
2022-12-09T21:01:35.199Z,19.00
2022-12-09T21:06:41.400Z,13.77
2022-12-09T21:11:45.365Z,24.60
2022-12-09T21:16:50.684Z,17.08
2022-12-09T21:21:55.517Z,11.73
2022-12-09T21:26:58.889Z,13.60
2022-12-09T21:32:02.233Z,14.55
2022-12-09T21:37:07.031Z,17.10
2022-12-09T21:42:10.378Z,15.90
2022-12-09T21:47:13.805Z,12.43
2022-12-09T21:52:18.395Z,24.17
2022-12-09T21:57:21.530Z,14.80
2022-12-09T22:02:24.756Z,12.95
2022-12-09T22:07:29.455Z,16.75
2022-12-09T22:12:32.634Z,17.45
2022-12-09T22:17:35.861Z,22.40
2022-12-09T22:22:40.713Z,15.00
2022-12-09T22:27:43.886Z,19.95
2022-12-09T22:32:50.775Z,13.93
2022-12-09T22:37:58.125Z,17.58
2022-12-09T22:43:02.600Z,13.82
2022-12-09T22:48:06.001Z,11.82
2022-12-09T22:53:10.598Z,21.70
2022-12-09T22:58:13.921Z,13.32
2022-12-09T23:03:18.113Z,16.88
2022-12-09T23:08:22.804Z,10.57
2022-12-09T23:13:25.968Z,15.65
2022-12-09T23:18:30.872Z,20.83
2022-12-09T23:23:35.581Z,15.88
2022-12-09T23:28:40.366Z,37.20
2022-12-09T23:33:45.598Z,18.55
2022-12-09T23:43:53.978Z,13.68
2022-12-09T23:48:57.170Z,12.95
2022-12-09T23:54:04.938Z,16.45
2022-12-09T23:59:11.197Z,21.73
